Map

Track Data

SID SEASON NUMBER BASIN SUBBASIN NAME ISO_TIME NATURE LAT LON WMO_WIND WMO_PRES WMO_AGENCY TRACK_TYPE DIST2LAND LANDFALL IFLAG USA_AGENCY USA_ATCF_ID USA_LAT USA_LON USA_RECORD USA_STATUS USA_WIND USA_PRES USA_SSHS USA_R34_NE USA_R34_SE USA_R34_SW USA_R34_NW USA_R50_NE USA_R50_SE USA_R50_SW USA_R50_NW USA_R64_NE USA_R64_SE USA_R64_SW USA_R64_NW USA_POCI USA_ROCI USA_RMW USA_EYE TOKYO_LAT TOKYO_LON TOKYO_GRADE TOKYO_WIND TOKYO_PRES TOKYO_R50_DIR TOKYO_R50_LONG TOKYO_R50_SHORT TOKYO_R30_DIR TOKYO_R30_LONG TOKYO_R30_SHORT TOKYO_LAND CMA_LAT CMA_LON CMA_CAT CMA_WIND CMA_PRES HKO_LAT HKO_LON HKO_CAT HKO_WIND HKO_PRES NEWDELHI_LAT NEWDELHI_LON NEWDELHI_GRADE NEWDELHI_WIND NEWDELHI_PRES NEWDELHI_CI NEWDELHI_DP NEWDELHI_POCI REUNION_LAT REUNION_LON REUNION_TYPE REUNION_WIND REUNION_PRES REUNION_TNUM REUNION_CI REUNION_RMW REUNION_R34_NE REUNION_R34_SE REUNION_R34_SW REUNION_R34_NW REUNION_R50_NE REUNION_R50_SE REUNION_R50_SW REUNION_R50_NW REUNION_R64_NE REUNION_R64_SE REUNION_R64_SW REUNION_R64_NW BOM_LAT BOM_LON BOM_TYPE BOM_WIND BOM_PRES BOM_TNUM BOM_CI BOM_RMW BOM_R34_NE BOM_R34_SE BOM_R34_SW BOM_R34_NW BOM_R50_NE BOM_R50_SE BOM_R50_SW BOM_R50_NW BOM_R64_NE BOM_R64_SE BOM_R64_SW BOM_R64_NW BOM_ROCI BOM_POCI BOM_EYE BOM_POS_METHOD BOM_PRES_METHOD NADI_LAT NADI_LON NADI_CAT NADI_WIND NADI_PRES WELLINGTON_LAT WELLINGTON_LON WELLINGTON_WIND WELLINGTON_PRES DS824_LAT DS824_LON DS824_STAGE DS824_WIND DS824_PRES TD9636_LAT TD9636_LON TD9636_STAGE TD9636_WIND TD9636_PRES TD9635_LAT TD9635_LON TD9635_WIND TD9635_PRES TD9635_ROCI NEUMANN_LAT NEUMANN_LON NEUMANN_CLASS NEUMANN_WIND NEUMANN_PRES MLC_LAT MLC_LON MLC_CLASS MLC_WIND MLC_PRES USA_GUST BOM_GUST BOM_GUST_PER REUNION_GUST REUNION_GUST_PER USA_SEAHGT USA_SEARAD_NE USA_SEARAD_SE USA_SEARAD_SW USA_SEARAD_NW STORM_SPEED STORM_DIR
1924333N11138 1924 54 WP MM NOT_NAMED 1924-11-27 22:00:00 NR 10.5000 138.000 main 1282 1238 __________O___ -1 10.5000 138.000 2 16 272
1924333N11138 1924 54 WP MM NOT_NAMED 1924-11-28 00:00:00 NR 10.5170 137.464 main 1238 1153 __________P___ -1 10.5170 137.464 2 16 272
1924333N11138 1924 54 WP MM NOT_NAMED 1924-11-28 03:00:00 NR 10.5414 136.667 main 1153 1072 __________P___ -1 10.5414 136.667 2 16 272
1924333N11138 1924 54 WP MM NOT_NAMED 1924-11-28 06:00:00 NR 10.5657 135.889 main 1072 986 __________P___ -1 10.5657 135.889 2 15 272
1924333N11138 1924 54 WP MM NOT_NAMED 1924-11-28 09:00:00 NR 10.5911 135.141 main 986 964 __________P___ -1 10.5911 135.141 2 15 272
1924333N11138 1924 54 WP MM NOT_NAMED 1924-11-28 10:00:00 NR 10.6000 134.900 main 964 911 __________O___ -1 10.6000 134.900 2 14 272
1924333N11138 1924 54 WP MM NOT_NAMED 1924-11-28 12:00:00 NR 10.6186 134.432 main 911 847 __________P___ -1 10.6186 134.432 2 14 272
1924333N11138 1924 54 WP MM NOT_NAMED 1924-11-28 15:00:00 NR 10.6471 133.756 main 847 774 __________P___ -1 10.6471 133.756 2 13 272
1924333N11138 1924 54 WP MM NOT_NAMED 1924-11-28 18:00:00 NR 10.6735 133.094 main 774 700 __________P___ -1 10.6735 133.094 2 13 272
1924333N11138 1924 54 WP MM NOT_NAMED 1924-11-28 21:00:00 NR 10.6947 132.427 main 700 678 __________P___ -1 10.6947 132.427 2 13 272
1924333N11138 1924 54 WP MM NOT_NAMED 1924-11-28 22:00:00 NR 10.7000 132.200 main 678 625 __________O___ -1 10.7000 132.200 2 14 271
1924333N11138 1924 54 WP MM NOT_NAMED 1924-11-29 00:00:00 NR 10.7053 131.736 main 625 552 __________P___ -1 10.7053 131.736 2 14 270
1924333N11138 1924 54 WP MM NOT_NAMED 1924-11-29 03:00:00 NR 10.7072 131.027 main 552 479 __________P___ -1 10.7072 131.027 2 14 270
1924333N11138 1924 54 WP MM NOT_NAMED 1924-11-29 06:00:00 NR 10.7047 130.301 main 479 408 __________P___ -1 10.7047 130.301 2 14 270
1924333N11138 1924 54 WP MM NOT_NAMED 1924-11-29 09:00:00 NR 10.7010 129.554 main 408 379 __________P___ -1 10.7010 129.554 2 15 270
1924333N11138 1924 54 WP MM NOT_NAMED 1924-11-29 10:00:00 NR 10.7000 129.300 main 379 329 __________O___ -1 10.7000 129.300 2 15 269
1924333N11138 1924 54 WP MM NOT_NAMED 1924-11-29 12:00:00 NR 10.6816 128.770 main 329 242 __________P___ -1 10.6816 128.770 2 16 268
1924333N11138 1924 54 WP MM NOT_NAMED 1924-11-29 15:00:00 NR 10.6537 127.957 main 242 148 __________P___ -1 10.6537 127.957 2 16 269
1924333N11138 1924 54 WP MM NOT_NAMED 1924-11-29 18:00:00 NR 10.6447 127.143 main 148 73 __________P___ -1 10.6447 127.143 2 16 271
1924333N11138 1924 54 WP MM NOT_NAMED 1924-11-29 21:00:00 NR 10.6765 126.353 main 73 46 __________P___ -1 10.6765 126.353 2 15 273
1924333N11138 1924 54 WP MM NOT_NAMED 1924-11-29 22:00:00 NR 10.7000 126.100 main 46 24 __________O___ -1 10.7000 126.100 2 15 277
1924333N11138 1924 54 WP MM NOT_NAMED 1924-11-30 00:00:00 NR 10.7605 125.614 main 31 0 __________P___ -1 10.7605 125.614 2 14 280
1924333N11138 1924 54 WP MM NOT_NAMED 1924-11-30 03:00:00 NR 10.8954 124.915 main 0 0 __________P___ -1 10.8954 124.915 2 14 283
1924333N11138 1924 54 WP MM NOT_NAMED 1924-11-30 06:00:00 NR 11.0806 124.249 main 21 0 __________P___ -1 11.0806 124.249 2 14 288
1924333N11138 1924 54 WP MM NOT_NAMED 1924-11-30 09:00:00 NR 11.3127 123.609 main 34 32 __________P___ -1 11.3127 123.609 2 13 291
1924333N11138 1924 54 WP MM NOT_NAMED 1924-11-30 10:00:00 NR 11.4000 123.400 main 32 0 __________O___ -1 11.4000 123.400 2 14 296
1924333N11138 1924 54 WP MM NOT_NAMED 1924-11-30 12:00:00 NR 11.6136 122.970 main 15 11 __________P___ -1 11.6136 122.970 2 14 299
1924333N11138 1924 54 WP MM NOT_NAMED 1924-11-30 15:00:00 NR 11.9729 122.344 main 24 22 __________P___ -1 11.9729 122.344 2 14 301
1924333N11138 1924 54 WP MM NOT_NAMED 1924-11-30 18:00:00 NR 12.3286 121.745 main 32 0 __________P___ -1 12.3286 121.745 2 13 300
1924333N11138 1924 54 WP MM NOT_NAMED 1924-11-30 21:00:00 NR 12.6244 121.180 main 0 0 __________P___ -1 12.6244 121.180 2 12 297
1924333N11138 1924 54 WP MM NOT_NAMED 1924-11-30 22:00:00 NR 12.7000 121.000 main 0 0 __________O___ -1 12.7000 121.000 2 11 289
1924333N11138 1924 54 WP MM NOT_NAMED 1924-12-01 00:00:00 NR 12.7977 120.662 main 10 21 __________P___ -1 12.7977 120.662 2 10 282
1924333N11138 1924 54 WP MM NOT_NAMED 1924-12-01 03:00:00 NR 12.8693 120.188 main 46 46 __________P___ -1 12.8693 120.188 2 9 275
1924333N11138 1924 54 WP MM NOT_NAMED 1924-12-01 06:00:00 NR 12.8704 119.729 main 85 85 __________P___ -1 12.8704 119.729 2 9 267
1924333N11138 1924 54 WP MM NOT_NAMED 1924-12-01 09:00:00 NR 12.8229 119.262 main 127 136 __________P___ -1 12.8229 119.262 2 9 263
1924333N11138 1924 54 WP MM NOT_NAMED 1924-12-01 10:00:00 NR 12.8000 119.100 main 146 146 __________O___ -1 12.8000 119.100 2 10 263
1924333N11138 1924 54 WP MM NOT_NAMED 1924-12-01 12:00:00 NR 12.7645 118.742 main 185 184 __________P___ -1 12.7645 118.742 2 11 262
1924333N11138 1924 54 WP MM NOT_NAMED 1924-12-01 15:00:00 NR 12.6799 118.187 main 211 211 __________P___ -1 12.6799 118.187 2 11 260
1924333N11138 1924 54 WP MM NOT_NAMED 1924-12-01 18:00:00 NR 12.5684 117.626 main 250 250 __________P___ -1 12.5684 117.626 2 11 258
1924333N11138 1924 54 WP MM NOT_NAMED 1924-12-01 21:00:00 NR 12.4428 117.077 main 284 293 __________P___ -1 12.4428 117.077 2 11 257
1924333N11138 1924 54 WP MM NOT_NAMED 1924-12-01 22:00:00 NR 12.4000 116.900 main 303 303 __________O___ -1 12.4000 116.900 2 10 256
1924333N11138 1924 54 WP MM NOT_NAMED 1924-12-02 00:00:00 NR 12.3142 116.561 main 328 339 __________P___ -1 12.3142 116.561 2 10 255
1924333N11138 1924 54 WP MM NOT_NAMED 1924-12-02 03:00:00 NR 12.1794 116.071 main 376 379 __________P___ -1 12.1794 116.071 2 10 254
1924333N11138 1924 54 WP MM NOT_NAMED 1924-12-02 06:00:00 NR 12.0481 115.601 main 395 395 __________P___ -1 12.0481 115.601 2 9 255
1924333N11138 1924 54 WP MM NOT_NAMED 1924-12-02 09:00:00 NR 11.9327 115.148 main 422 422 __________P___ -1 11.9327 115.148 2 9 256
1924333N11138 1924 54 WP MM NOT_NAMED 1924-12-02 10:00:00 NR 11.9000 115.000 main 430 430 __________O___ -1 11.9000 115.000 2 11 254
1924333N11138 1924 54 WP MM NOT_NAMED 1924-12-02 12:00:00 NR 11.7789 114.598 main 454 454 __________P___ -1 11.7789 114.598 2 12 254
1924333N11138 1924 54 WP MM NOT_NAMED 1924-12-02 15:00:00 NR 11.6143 114.006 main 488 452 __________P___ -1 11.6143 114.006 2 11 257
1924333N11138 1924 54 WP MM NOT_NAMED 1924-12-02 18:00:00 NR 11.5368 113.534 main 452 428 __________P___ -1 11.5368 113.534 2 7 271
1924333N11138 1924 54 WP MM NOT_NAMED 1924-12-02 21:00:00 NR 11.6222 113.303 main 428 425 __________P___ -1 11.6222 113.303 2 4 306
1924333N11138 1924 54 WP MM NOT_NAMED 1924-12-02 22:00:00 NR 11.7000 113.300 main 425 422 __________O___ -1 11.7000 113.300 2 8 29
1924333N11138 1924 54 WP MM NOT_NAMED 1924-12-03 00:00:00 NR 11.9606 113.493 main 440 440 __________P___ -1 11.9606 113.493 2 13 41
1924333N11138 1924 54 WP MM NOT_NAMED 1924-12-03 03:00:00 NR 12.5220 114.043 main 488 499 __________P___ -1 12.5220 114.043 2 18 45
1924333N11138 1924 54 WP MM NOT_NAMED 1924-12-03 06:00:00 NR 13.2144 114.761 main 548 498 __________P___ -1 13.2144 114.761 2 20 44
1924333N11138 1924 54 WP MM NOT_NAMED 1924-12-03 09:00:00 NR 13.9558 115.486 main 498 471 __________P___ -1 13.9558 115.486 2 20 43
1924333N11138 1924 54 WP MM NOT_NAMED 1924-12-03 10:00:00 NR 14.2000 115.700 main 471 412 __________O___ -1 14.2000 115.700 2 18 38
1924333N11138 1924 54 WP MM NOT_NAMED 1924-12-03 12:00:00 NR 14.6710 116.062 main 412 351 __________P___ -1 14.6710 116.062 2 16 33
1924333N11138 1924 54 WP MM NOT_NAMED 1924-12-03 15:00:00 NR 15.3399 116.462 main 351 320 __________P___ -1 15.3399 116.462 2 15 26
1924333N11138 1924 54 WP MM NOT_NAMED 1924-12-03 18:00:00 NR 15.9767 116.736 main 320 301 __________P___ -1 15.9767 116.736 2 13 20
1924333N11138 1924 54 WP MM NOT_NAMED 1924-12-03 21:00:00 NR 16.5954 116.939 main 306 298 __________P___ -1 16.5954 116.939 2 13 17
1924333N11138 1924 54 WP MM NOT_NAMED 1924-12-03 22:00:00 NR 16.8000 117.000 main 301 __________O___ -1 16.8000 117.000 2 13 16

Digital Typhoon Data and Search

About IBTrACS Database

This database is a web-friendly format of International Best Track Archive for Climate Stewardship (IBTrACS), a global best track data archive curated by NOAA dating back to 1842.

Updated: 2021-10-25